Time;durP1;ratioP1;P1;durP2;ratioP2;P2;SDS_P1;SDS_P2;PMS_P1;PMS_P2;Temp;Humidity;BMP_temperature;BMP_pressure;BME280_temperature;BME280_humidity;BME280_pressure;Samples;Min_cycle;Max_cycle;Signal;HPM_P1;HPM_P2
2021/12/21 00:01:13;;;;;;;7.40;5.03;;;;;;;1.99;76.37;96081.78;4314842;33;20186;-60
2021/12/21 00:03:39;;;;;;;7.50;4.83;;;;;;;2.10;76.30;96084.66;4330470;32;20423;-59
2021/12/21 00:06:07;;;;;;;6.87;4.83;;;;;;;1.94;76.69;96080.84;4325367;32;20278;-59
2021/12/21 00:08:37;;;;;;;6.47;4.80;;;;;;;1.91;77.07;96076.84;4322349;32;20308;-59
2021/12/21 00:11:07;;;;;;;5.82;4.93;;;;;;;1.82;77.60;96080.00;4337997;32;20181;-60
2021/12/21 00:13:52;;;;;;;5.53;4.63;;;;;;;1.82;77.05;96072.94;4331056;32;20269;-60
2021/12/21 00:21:35;;;;;;;6.77;5.13;;;;;;;1.67;77.17;96083.75;4326644;32;20277;-60
2021/12/21 00:24:11;;;;;;;5.47;4.17;;;;;;;1.87;76.83;96075.69;4332353;32;20270;-60
2021/12/21 00:26:39;;;;;;;7.80;4.50;;;;;;;1.84;77.24;96064.88;4332441;32;20416;-60
2021/12/21 00:29:06;;;;;;;7.65;5.35;;;;;;;1.95;76.51;96059.69;4314733;33;20208;-60
2021/12/21 00:31:38;;;;;;;6.05;5.35;;;;;;;1.83;76.71;96069.31;4326860;33;20224;-59
2021/12/21 00:34:07;;;;;;;6.40;4.82;;;;;;;1.43;78.23;96073.38;4291975;33;20194;-60
2021/12/21 00:36:35;;;;;;;7.15;4.85;;;;;;;1.54;78.26;96075.25;4267022;33;20186;-60
2021/12/21 00:39:06;;;;;;;5.20;4.45;;;;;;;1.78;77.42;96061.31;4325738;32;20178;-60
2021/12/21 00:41:34;;;;;;;6.28;4.30;;;;;;;1.86;77.13;96058.41;4302599;32;20272;-60
2021/12/21 00:44:02;;;;;;;5.57;4.57;;;;;;;1.87;76.57;96065.22;4328309;32;20216;-60
2021/12/21 00:46:28;;;;;;;5.83;4.27;;;;;;;1.76;76.95;96062.56;4329368;32;20270;-59
2021/12/21 00:49:01;;;;;;;4.68;4.22;;;;;;;1.76;77.27;96055.50;4313563;33;20275;-60
2021/12/21 00:51:27;;;;;;;4.30;3.62;;;;;;;1.81;77.17;96054.84;4318450;32;20186;-59
2021/12/21 00:53:52;;;;;;;5.00;3.47;;;;;;;1.86;76.84;96053.19;4323766;32;20182;-59
2021/12/21 00:56:19;;;;;;;4.13;3.40;;;;;;;1.98;76.30;96048.78;4288961;33;20192;-64
2021/12/21 00:58:46;;;;;;;6.68;3.58;;;;;;;1.74;76.73;96047.06;4295857;33;20237;-59
2021/12/21 01:01:12;;;;;;;3.40;3.10;;;;;;;1.75;77.15;96040.03;4309548;33;20218;-59
2021/12/21 01:03:45;;;;;;;3.83;3.40;;;;;;;1.81;76.84;96045.19;4317528;33;20325;-59
2021/12/21 01:06:26;;;;;;;3.87;3.33;;;;;;;1.69;77.16;96041.69;4316037;33;20502;-60
2021/12/21 01:09:18;;;;;;;4.70;3.70;;;;;;;1.58;76.99;96037.22;4325339;32;20189;-60
2021/12/21 01:11:55;;;;;;;4.83;3.10;;;;;;;1.54;77.02;96033.44;4270161;33;20328;-59
2021/12/21 01:19:45;;;;;;;4.50;3.07;;;;;;;1.30;77.86;96028.06;4325058;32;20282;-59
2021/12/21 01:30:53;;;;;;;3.62;2.67;;;;;;;1.67;76.68;96026.22;4328510;32;20232;-59
2021/12/21 01:36:25;;;;;;;4.93;3.35;;;;;;;1.57;76.78;96022.53;4319060;32;20228;-61
2021/12/21 01:39:39;;;;;;;3.75;2.90;;;;;;;1.52;76.81;96022.41;4331339;32;20194;-59
2021/12/21 01:49:31;;;;;;;3.05;2.42;;;;;;;1.48;77.09;96018.62;4313123;32;20271;-61
2021/12/21 01:49:57;;;;;;;3.30;3.00;;;;;;;1.37;77.80;96014.94;4323711;32;20221;-60
2021/12/21 01:52:30;;;;;;;5.15;3.05;;;;;;;1.54;77.04;96008.09;4328104;32;20205;-60
2021/12/21 01:54:56;;;;;;;4.13;3.40;;;;;;;1.33;77.62;96006.72;4314430;33;20232;-59
2021/12/21 01:57:24;;;;;;;6.90;3.33;;;;;;;1.38;77.30;96004.25;4335322;32;20275;-60
2021/12/21 01:59:53;;;;;;;4.72;3.45;;;;;;;1.22;78.23;96004.84;4331332;32;20193;-61
2021/12/21 02:02:20;;;;;;;4.00;3.10;;;;;;;1.42;77.49;96003.84;4310912;33;20178;-63
2021/12/21 02:04:46;;;;;;;2.87;2.67;;;;;;;1.50;77.21;96000.91;4329947;33;20244;-59
2021/12/21 02:07:16;;;;;;;5.23;3.93;;;;;;;1.49;76.85;95994.06;4324129;32;20264;-60
2021/12/21 02:09:45;;;;;;;3.17;2.87;;;;;;;1.40;77.00;95995.41;4330574;32;20192;-60
2021/12/21 02:12:25;;;;;;;4.00;3.15;;;;;;;1.27;77.10;95986.69;4327584;32;20356;-59
2021/12/21 02:14:58;;;;;;;3.72;3.15;;;;;;;1.39;77.43;95984.16;4313870;32;20191;-59
2021/12/21 02:30:48;;;;;;;8.48;3.90;;;;;;;1.49;76.34;95970.56;4327696;32;20307;-60
2021/12/21 02:33:17;;;;;;;4.72;3.72;;;;;;;1.49;76.62;95962.72;4326121;32;20189;-59
2021/12/21 02:35:47;;;;;;;5.97;3.78;;;;;;;1.26;76.84;95963.38;4324022;33;20197;-59
2021/12/21 02:38:15;;;;;;;3.55;3.33;;;;;;;1.33;76.79;95964.13;4325487;33;20277;-59
2021/12/21 02:40:42;;;;;;;4.00;3.55;;;;;;;1.19;76.92;95963.47;4336456;33;20276;-59
2021/12/21 02:43:10;;;;;;;6.53;3.60;;;;;;;1.32;76.75;95958.09;4311803;33;22691;-59
2021/12/21 02:45:38;;;;;;;7.00;3.50;;;;;;;1.24;77.50;95965.44;4317107;32;20283;-60
2021/12/21 02:48:09;;;;;;;3.95;3.58;;;;;;;1.13;78.10;95958.31;4311866;33;20232;-60
2021/12/21 02:50:41;;;;;;;4.60;4.03;;;;;;;1.22;77.36;95963.03;4314116;33;20178;-60
2021/12/21 02:53:09;;;;;;;4.62;3.75;;;;;;;0.94;78.53;95955.72;4322042;33;20208;-60
2021/12/21 02:55:46;;;;;;;6.22;4.32;;;;;;;1.13;77.34;95966.94;4313439;33;20186;-59
2021/12/21 02:58:14;;;;;;;5.93;3.37;;;;;;;1.10;77.04;95958.75;4315723;33;20186;-59
2021/12/21 03:00:43;;;;;;;4.50;4.10;;;;;;;0.95;78.14;95951.28;4299335;33;20245;-59
2021/12/21 03:03:13;;;;;;;4.47;4.07;;;;;;;0.98;78.03;95956.88;4331802;32;20182;-59
2021/12/21 03:05:45;;;;;;;6.72;4.20;;;;;;;0.81;78.11;95962.88;4322673;33;20261;-59
2021/12/21 03:08:16;;;;;;;3.95;3.60;;;;;;;0.96;77.67;95956.28;4317633;32;20240;-60
2021/12/21 03:16:17;;;;;;;7.72;5.43;;;;;;;0.36;80.09;95963.09;4299146;33;20220;-59
2021/12/21 03:18:42;;;;;;;6.10;5.12;;;;;;;0.22;80.42;95964.97;4324072;33;20182;-59
2021/12/21 03:21:12;;;;;;;6.40;4.93;;;;;;;0.28;80.77;95960.72;4311591;33;20321;-59
2021/12/21 03:23:40;;;;;;;5.90;4.80;;;;;;;0.46;79.78;95963.38;4309377;33;20245;-59
2021/12/21 03:26:07;;;;;;;7.40;5.43;;;;;;;0.74;78.17;95954.31;4319892;33;20279;-59
2021/12/21 03:28:33;;;;;;;6.80;5.00;;;;;;;0.62;78.02;95957.59;4347341;32;20205;-59
2021/12/21 03:31:00;;;;;;;6.83;5.47;;;;;;;0.47;78.12;95954.53;4342298;32;20178;-59
2021/12/21 03:33:26;;;;;;;7.50;5.72;;;;;;;0.39;78.70;95954.03;4326150;33;20271;-59
2021/12/21 03:35:53;;;;;;;7.63;6.53;;;;;;;0.44;78.93;95954.97;4340205;32;20178;-60
2021/12/21 03:38:19;;;;;;;7.37;6.57;;;;;;;0.48;78.72;95955.34;4322139;32;20181;-59
2021/12/21 03:40:47;;;;;;;7.90;6.75;;;;;;;0.21;79.22;95952.94;4347376;32;20261;-59
2021/12/21 03:43:14;;;;;;;8.13;6.60;;;;;;;0.31;79.28;95955.88;4335280;33;20201;-60
2021/12/21 03:45:49;;;;;;;7.62;6.37;;;;;;;0.22;80.06;95951.13;4334200;32;20305;-58
2021/12/21 03:48:16;;;;;;;6.05;5.55;;;;;;;0.12;80.22;95950.81;4306630;32;20189;-59
2021/12/21 03:50:43;;;;;;;6.87;6.10;;;;;;;0.03;80.68;95949.47;4333315;32;20293;-59
2021/12/21 03:53:10;;;;;;;8.35;6.22;;;;;;;0.09;80.86;95951.25;4321928;32;20268;-59
2021/12/21 03:55:36;;;;;;;9.90;7.55;;;;;;;0.05;80.91;95943.03;4353033;32;20233;-60
2021/12/21 03:58:03;;;;;;;7.20;5.47;;;;;;;-0.15;81.57;95940.56;4332913;32;20181;-60
2021/12/21 04:00:29;;;;;;;6.05;5.35;;;;;;;0.15;80.97;95950.41;4337742;32;20189;-60
2021/12/21 04:02:55;;;;;;;5.40;4.90;;;;;;;0.15;81.06;95942.56;4329585;32;20247;-60
2021/12/21 04:05:23;;;;;;;6.62;4.78;;;;;;;0.42;80.07;95938.72;4334222;32;20304;-60
2021/12/21 04:07:50;;;;;;;6.07;5.25;;;;;;;0.57;79.51;95941.03;4354419;32;20196;-62
2021/12/21 04:10:17;;;;;;;5.60;5.10;;;;;;;0.39;79.84;95941.78;4318360;32;20166;-59
2021/12/21 04:12:42;;;;;;;8.70;5.12;;;;;;;0.30;80.18;95949.06;4320820;32;20235;-60
2021/12/21 04:15:13;;;;;;;6.73;4.90;;;;;;;0.24;80.33;95936.06;4330933;32;20281;-60
2021/12/21 04:17:40;;;;;;;8.00;5.10;;;;;;;0.38;80.09;95939.37;4330358;32;20361;-59
2021/12/21 04:20:08;;;;;;;6.62;4.80;;;;;;;0.14;81.30;95938.37;4323157;32;20190;-59
2021/12/21 04:22:33;;;;;;;4.80;4.30;;;;;;;0.33;80.20;95937.41;4328087;32;20189;-59
2021/12/21 04:25:00;;;;;;;6.30;4.70;;;;;;;0.49;79.83;95936.88;4343106;32;20165;-59
2021/12/21 04:27:25;;;;;;;6.72;4.65;;;;;;;0.50;79.68;95938.47;4345544;32;20247;-58
2021/12/21 04:29:52;;;;;;;7.15;4.72;;;;;;;0.50;79.77;95943.69;4330552;32;20208;-59
2021/12/21 04:32:20;;;;;;;5.55;4.70;;;;;;;0.53;79.50;95938.03;4341886;32;20261;-62
2021/12/21 04:34:47;;;;;;;7.78;4.40;;;;;;;0.39;80.13;95947.00;4339657;32;20189;-59
2021/12/21 04:37:16;;;;;;;5.75;4.82;;;;;;;0.34;80.20;95945.03;4305022;32;20202;-59
2021/12/21 04:39:54;;;;;;;6.78;4.40;;;;;;;0.66;79.50;95937.09;4333955;32;20272;-59
2021/12/21 04:42:32;;;;;;;6.68;4.55;;;;;;;0.62;79.43;95936.72;4342424;32;20181;-59
2021/12/21 04:45:04;;;;;;;4.32;3.80;;;;;;;0.39;80.28;95936.56;4335416;32;20248;-59
2021/12/21 04:47:29;;;;;;;5.62;4.18;;;;;;;0.25;81.31;95930.63;4323740;32;20280;-59
2021/12/21 04:49:55;;;;;;;4.47;4.07;;;;;;;0.51;80.53;95934.84;4340102;32;20198;-60
2021/12/21 04:52:20;;;;;;;5.00;3.90;;;;;;;0.28;81.61;95934.62;4328127;32;20196;-59
2021/12/21 04:54:47;;;;;;;4.33;3.87;;;;;;;0.50;80.65;95938.47;4310309;33;20201;-59
2021/12/21 04:57:12;;;;;;;4.53;3.67;;;;;;;0.67;80.21;95934.28;4328019;32;20208;-59
2021/12/21 04:59:43;;;;;;;4.47;3.43;;;;;;;0.90;79.03;95932.84;4320727;32;20256;-59
2021/12/21 05:02:13;;;;;;;4.55;4.15;;;;;;;0.91;78.79;95935.25;4340614;32;20261;-59
2021/12/21 05:04:41;;;;;;;6.72;4.03;;;;;;;0.94;78.73;95939.25;4338521;32;20297;-59
2021/12/21 05:07:15;;;;;;;5.82;3.53;;;;;;;1.05;78.12;95933.28;4330202;32;20199;-60
2021/12/21 05:09:55;;;;;;;4.47;3.40;;;;;;;1.01;78.27;95935.56;4329491;32;20192;-59
2021/12/21 05:12:20;;;;;;;6.15;4.60;;;;;;;0.83;79.04;95937.38;4315455;32;20227;-59
2021/12/21 05:14:48;;;;;;;4.00;3.70;;;;;;;0.68;79.72;95946.31;4334484;32;20181;-60
2021/12/21 05:17:13;;;;;;;4.50;3.95;;;;;;;0.83;79.62;95934.75;4321336;32;20190;-58
2021/12/21 05:19:40;;;;;;;6.50;3.60;;;;;;;0.58;79.58;95934.78;4330525;32;20303;-59
2021/12/21 05:22:06;;;;;;;4.47;3.87;;;;;;;0.78;78.98;95935.38;4328139;32;20229;-59
2021/12/21 05:24:33;;;;;;;4.93;4.13;;;;;;;0.88;78.91;95940.09;4337193;32;20191;-59
2021/12/21 05:27:00;;;;;;;5.82;3.62;;;;;;;0.82;79.16;95938.37;4317749;32;20188;-59
2021/12/21 05:29:33;;;;;;;4.28;3.80;;;;;;;0.84;78.86;95938.94;4311595;32;20186;-59
2021/12/21 05:32:00;;;;;;;3.85;3.55;;;;;;;0.72;79.58;95948.50;4339316;32;20191;-60
2021/12/21 05:34:28;;;;;;;4.30;3.90;;;;;;;0.68;79.35;95943.72;4315655;33;20271;-60
2021/12/21 05:36:55;;;;;;;5.68;4.37;;;;;;;0.91;78.61;95934.44;4317997;33;20190;-59
2021/12/21 05:39:26;;;;;;;6.50;4.45;;;;;;;0.75;79.47;95940.25;4302846;33;20174;-60
2021/12/21 05:41:55;;;;;;;4.28;3.80;;;;;;;0.82;78.93;95949.62;4283555;33;20190;-60
2021/12/21 05:44:30;;;;;;;7.78;4.50;;;;;;;0.71;79.32;95959.97;4324203;32;20193;-62
2021/12/21 05:46:57;;;;;;;4.57;3.90;;;;;;;0.56;79.51;95960.31;4325272;33;20245;-59
2021/12/21 05:49:23;;;;;;;5.32;4.37;;;;;;;0.50;80.21;95956.72;4307993;32;20197;-60
2021/12/21 05:51:57;;;;;;;5.93;4.00;;;;;;;0.49;80.17;95960.34;4327505;33;20284;-65
2021/12/21 05:54:24;;;;;;;4.97;3.95;;;;;;;0.37;80.99;95961.28;4307287;33;20197;-60
2021/12/21 05:56:50;;;;;;;4.57;4.18;;;;;;;0.37;80.73;95959.47;4325401;32;20236;-60
2021/12/21 05:59:17;;;;;;;4.30;3.50;;;;;;;0.30;81.02;95959.50;4319060;33;20237;-59
2021/12/21 06:01:43;;;;;;;5.93;4.00;;;;;;;0.49;80.41;95962.97;4276152;33;20183;-60
2021/12/21 06:04:10;;;;;;;6.47;4.45;;;;;;;0.67;79.90;95955.16;4317130;33;20261;-60
2021/12/21 06:06:38;;;;;;;4.40;3.78;;;;;;;0.78;79.39;95956.28;4311568;32;20204;-60
2021/12/21 06:09:08;;;;;;;3.97;3.55;;;;;;;0.90;79.13;95948.50;4325526;32;20186;-60
2021/12/21 06:11:46;;;;;;;4.25;3.95;;;;;;;0.63;79.46;95953.19;4328988;33;20189;-60
2021/12/21 06:27:26;;;;;;;4.70;4.12;;;;;;;0.67;79.50;95970.03;4331503;32;20239;-60
2021/12/21 06:29:56;;;;;;;5.47;4.07;;;;;;;0.91;78.60;95963.97;4330146;32;20264;-60
2021/12/21 06:32:24;;;;;;;4.28;3.87;;;;;;;0.84;78.76;95967.66;4331581;32;20334;-61
2021/12/21 06:34:49;;;;;;;5.12;4.53;;;;;;;0.90;78.64;95969.41;4319412;32;20198;-60
2021/12/21 06:37:20;;;;;;;5.60;5.00;;;;;;;0.98;78.10;95972.53;4340490;32;20200;-60
2021/12/21 06:39:48;;;;;;;4.65;4.00;;;;;;;0.83;78.64;95968.69;4343565;32;20257;-61
2021/12/21 06:42:16;;;;;;;6.03;4.78;;;;;;;0.95;78.09;95967.75;4344399;32;20193;-60
2021/12/21 06:44:55;;;;;;;5.90;4.78;;;;;;;0.83;77.95;95963.47;4350393;32;20244;-60
2021/12/21 06:53:15;;;;;;;5.07;4.62;;;;;;;0.65;79.03;95967.63;4322702;33;20265;-60
2021/12/21 06:55:42;;;;;;;6.47;5.22;;;;;;;0.73;79.05;95958.72;4341923;32;20324;-60
2021/12/21 06:58:09;;;;;;;11.12;4.72;;;;;;;0.51;79.36;95966.16;4332699;32;20216;-60
2021/12/21 07:00:36;;;;;;;7.45;5.78;;;;;;;0.72;79.87;95970.19;4327016;32;20193;-60
2021/12/21 07:03:01;;;;;;;9.25;6.65;;;;;;;0.68;80.10;95964.59;4321992;33;20189;-59
2021/12/21 07:05:29;;;;;;;6.83;6.10;;;;;;;0.59;80.99;95970.31;4331904;32;20280;-61
2021/12/21 07:07:56;;;;;;;7.45;6.75;;;;;;;0.69;80.80;95971.41;4336976;32;20189;-60
2021/12/21 07:10:29;;;;;;;9.90;6.95;;;;;;;0.82;79.93;95974.94;4328616;32;20243;-60
2021/12/21 07:18:45;;;;;;;10.40;8.75;;;;;;;0.52;81.66;95967.75;4297085;33;20201;-60
2021/12/21 07:21:12;;;;;;;9.63;8.63;;;;;;;0.23;82.90;95973.59;4336544;32;20298;-59
2021/12/21 07:23:40;;;;;;;9.38;8.23;;;;;;;0.19;83.65;95965.41;4312324;33;20190;-60
2021/12/21 07:26:12;;;;;;;10.27;8.02;;;;;;;0.40;82.98;95961.66;4339611;32;20199;-60
2021/12/21 07:28:39;;;;;;;12.05;8.57;;;;;;;0.42;82.76;95967.44;4314242;32;20294;-60
2021/12/21 07:31:14;;;;;;;17.30;9.25;;;;;;;0.52;82.40;95972.97;4314190;32;20215;-60
2021/12/21 07:33:40;;;;;;;12.73;9.27;;;;;;;0.30;82.67;95979.56;4310659;33;20178;-60
2021/12/21 07:36:09;;;;;;;11.85;9.40;;;;;;;0.42;82.82;95967.44;4330007;32;20177;-61
2021/12/21 07:38:36;;;;;;;11.55;8.38;;;;;;;0.32;82.34;95972.34;4297431;33;20182;-61
2021/12/21 07:41:22;;;;;;;11.20;8.43;;;;;;;0.37;82.17;95969.91;4306861;33;20182;-60
2021/12/21 07:44:13;;;;;;;15.38;8.98;;;;;;;0.44;82.46;95975.84;4272351;33;20195;-61
2021/12/21 07:46:44;;;;;;;10.05;8.05;;;;;;;0.49;82.62;95968.19;4325789;32;20261;-62
2021/12/21 07:49:12;;;;;;;11.10;8.25;;;;;;;0.52;81.61;95966.94;4323414;33;20273;-61
2021/12/21 07:51:39;;;;;;;10.48;8.60;;;;;;;0.67;80.90;95968.22;4332154;33;20239;-60
2021/12/21 07:54:07;;;;;;;11.57;8.82;;;;;;;0.57;81.37;95964.50;4309275;33;20209;-61
2021/12/21 07:56:34;;;;;;;11.80;8.40;;;;;;;0.48;81.57;95958.75;4321190;33;20186;-60
2021/12/21 07:59:04;;;;;;;10.25;9.18;;;;;;;0.41;82.19;95958.03;4324132;32;20253;-61
2021/12/21 08:01:32;;;;;;;12.93;8.65;;;;;;;0.63;81.37;95955.81;4311305;32;20296;-60
2021/12/21 08:03:59;;;;;;;10.13;8.85;;;;;;;0.47;81.47;95959.75;4301909;33;20200;-61
2021/12/21 08:06:30;;;;;;;12.15;8.90;;;;;;;0.65;81.14;95954.56;4308203;33;20220;-60
2021/12/21 08:08:57;;;;;;;13.43;10.00;;;;;;;0.59;81.84;95954.66;4308831;32;20183;-61
2021/12/21 08:12:13;;;;;;;13.38;10.40;;;;;;;0.59;81.11;95952.03;4330418;33;20185;-61
2021/12/21 08:14:14;;;;;;;11.88;10.23;;;;;;;0.44;82.69;95959.38;4285026;33;20193;-60
2021/12/21 08:16:41;;;;;;;15.47;11.60;;;;;;;0.33;82.53;95958.28;4305688;33;20281;-59
2021/12/21 08:19:08;;;;;;;14.70;10.40;;;;;;;0.55;82.24;95953.47;4317779;33;20322;-60
2021/12/21 08:21:35;;;;;;;16.80;11.82;;;;;;;0.58;82.26;95951.25;4315114;33;20264;-60
2021/12/21 08:24:00;;;;;;;15.95;10.80;;;;;;;0.34;83.02;95955.47;4320180;33;20194;-60
2021/12/21 08:26:33;;;;;;;17.07;11.43;;;;;;;0.42;83.47;95961.41;4300503;33;20280;-60
2021/12/21 08:29:00;;;;;;;14.50;11.65;;;;;;;0.59;82.39;95960.69;4331037;32;20182;-60
2021/12/21 08:31:28;;;;;;;18.10;11.80;;;;;;;0.55;82.30;95964.72;4321099;32;20229;-61
2021/12/21 08:33:57;;;;;;;14.87;11.10;;;;;;;0.68;81.76;95967.19;4297053;33;20190;-61
2021/12/21 08:36:23;;;;;;;18.83;12.40;;;;;;;0.55;82.67;95967.34;4274863;33;20200;-61
2021/12/21 08:38:49;;;;;;;17.75;11.25;;;;;;;0.42;83.60;95972.66;4285773;33;20191;-65
2021/12/21 08:41:15;;;;;;;14.50;10.43;;;;;;;0.63;82.92;95972.25;4302274;33;20197;-61
2021/12/21 08:43:41;;;;;;;15.30;11.18;;;;;;;0.56;82.56;95975.97;4309986;33;20195;-61
2021/12/21 08:46:08;;;;;;;15.48;11.77;;;;;;;0.78;81.91;95971.16;4325529;32;20217;-61
2021/12/21 08:48:35;;;;;;;15.93;10.75;;;;;;;1.04;80.31;95976.09;4288323;33;20249;-61
2021/12/21 08:51:07;;;;;;;13.65;11.23;;;;;;;0.75;80.89;95977.59;4297639;33;20217;-61
2021/12/21 08:53:34;;;;;;;13.62;9.68;;;;;;;1.13;79.85;95974.78;4321133;32;20178;-61
2021/12/21 08:56:11;;;;;;;16.00;10.95;;;;;;;1.21;79.46;95971.09;4326714;32;20213;-61
2021/12/21 08:58:36;;;;;;;11.70;9.85;;;;;;;1.01;80.25;95979.94;4316024;33;20351;-61
2021/12/21 09:01:17;;;;;;;12.60;9.90;;;;;;;1.29;79.14;95974.19;4314498;33;20182;-61
2021/12/21 09:03:45;;;;;;;12.02;9.93;;;;;;;1.45;78.29;95970.22;4297301;33;20178;-61
2021/12/21 09:06:11;;;;;;;10.82;9.45;;;;;;;1.65;77.39;95959.50;4317300;33;20284;-61
2021/12/21 09:08:37;;;;;;;13.35;9.55;;;;;;;1.78;76.87;95967.16;4303465;33;20272;-61
2021/12/21 09:11:11;;;;;;;11.53;9.63;;;;;;;1.89;76.17;95970.84;4323884;32;20190;-61
2021/12/21 09:13:37;;;;;;;12.57;9.90;;;;;;;1.66;76.74;95971.56;4325232;32;20284;-61
2021/12/21 09:16:15;;;;;;;10.23;9.07;;;;;;;1.90;76.03;95962.75;4322927;32;20308;-61
2021/12/21 09:18:42;;;;;;;10.55;8.98;;;;;;;1.73;76.65;95969.66;4332229;32;20205;-61
2021/12/21 09:21:09;;;;;;;14.40;10.60;;;;;;;1.84;76.35;95971.53;4315273;32;20194;-61
2021/12/21 09:23:35;;;;;;;12.85;10.05;;;;;;;1.74;76.80;95973.84;4302917;33;20312;-61
2021/12/21 09:26:00;;;;;;;14.53;10.50;;;;;;;1.79;77.20;95960.91;4319136;33;20182;-61
2021/12/21 09:28:29;;;;;;;13.98;10.15;;;;;;;1.91;76.77;95960.94;4330733;32;20233;-60
2021/12/21 09:30:57;;;;;;;13.23;10.32;;;;;;;1.45;78.69;95966.81;4337835;32;20239;-61
2021/12/21 09:33:23;;;;;;;13.10;10.50;;;;;;;1.18;79.88;95961.09;4321911;32;20185;-61
2021/12/21 09:35:54;;;;;;;11.27;10.03;;;;;;;1.49;78.77;95965.31;4337909;32;20203;-61
2021/12/21 09:38:23;;;;;;;12.52;10.40;;;;;;;1.57;78.17;95959.81;4311683;32;20197;-61
2021/12/21 09:40:49;;;;;;;12.97;10.37;;;;;;;1.77;77.73;95964.78;4329839;32;20181;-60
2021/12/21 09:43:18;;;;;;;12.35;10.43;;;;;;;1.77;76.62;95965.56;4317905;32;20281;-61
2021/12/21 09:45:47;;;;;;;14.80;10.70;;;;;;;1.25;78.52;95956.56;4288902;33;20169;-61
2021/12/21 09:48:12;;;;;;;12.13;9.48;;;;;;;1.36;79.30;95964.47;4320485;32;20193;-61
2021/12/21 09:50:39;;;;;;;11.60;10.13;;;;;;;1.49;78.20;95957.47;4324693;32;20185;-61
2021/12/21 09:53:08;;;;;;;12.45;9.73;;;;;;;1.33;78.37;95959.69;4315347;32;20229;-60
2021/12/21 09:55:35;;;;;;;10.80;9.13;;;;;;;1.19;78.31;95953.03;4344464;32;20227;-60
2021/12/21 09:58:01;;;;;;;10.80;9.15;;;;;;;0.81;79.90;95960.28;4330332;32;20187;-60
2021/12/21 10:00:34;;;;;;;12.23;9.02;;;;;;;0.75;80.47;95961.13;4328734;32;20233;-60
2021/12/21 10:03:09;;;;;;;8.95;8.10;;;;;;;1.19;79.67;95962.69;4318468;32;20256;-60
2021/12/21 10:05:47;;;;;;;13.50;9.27;;;;;;;1.33;78.28;95958.88;4317768;32;20200;-60
2021/12/21 10:08:18;;;;;;;9.40;8.50;;;;;;;1.12;78.16;95967.16;4316601;32;20263;-60
2021/12/21 10:10:54;;;;;;;12.52;8.60;;;;;;;1.38;77.73;95961.66;4322362;32;20193;-60
2021/12/21 10:13:31;;;;;;;12.68;8.85;;;;;;;1.53;77.20;95956.03;4325488;32;20224;-61
2021/12/21 10:15:59;;;;;;;11.40;8.38;;;;;;;1.40;77.89;95959.63;4325565;32;20324;-60
2021/12/21 10:18:41;;;;;;;6.80;4.80;;;;;;;1.99;79.92;95950.19;4334760;32;20177;-59
2021/12/21 10:21:14;;;;;;;9.33;8.43;;;;;;;5.68;100.00;95933.47;4314840;32;20343;-57
2021/12/21 10:23:44;;;;;;;8.03;7.23;;;;;;;3.20;76.00;95954.78;4318711;32;20398;-60
2021/12/21 10:26:24;;;;;;;8.53;6.93;;;;;;;6.78;64.12;95927.59;4300896;32;20353;-60
2021/12/21 10:29:10;;;;;;;7.50;6.63;;;;;;;5.61;62.16;95927.59;4304645;32;20270;-61
2021/12/21 10:31:40;;;;;;;8.40;6.77;;;;;;;4.82;63.40;95928.72;4302209;32;20340;-60
2021/12/21 10:34:12;;;;;;;19.67;8.13;;;;;;;4.12;65.12;95931.84;4321857;32;20273;-59
2021/12/21 10:36:49;;;;;;;9.80;6.50;;;;;;;4.55;65.80;95933.06;4313317;33;20288;-60
2021/12/21 10:39:28;;;;;;;7.03;6.33;;;;;;;4.41;65.44;95937.03;4319502;32;20278;-59
2021/12/21 10:41:59;;;;;;;6.63;6.07;;;;;;;3.86;66.52;95931.66;4326180;33;20369;-56
2021/12/21 10:44:26;;;;;;;8.57;6.73;;;;;;;3.22;68.05;95929.13;4325085;32;20300;-58
2021/12/21 10:46:56;;;;;;;7.43;6.70;;;;;;;3.12;69.45;95927.09;4308043;32;20350;-59
2021/12/21 10:49:25;;;;;;;7.63;6.93;;;;;;;2.94;69.39;95923.81;4320009;33;20348;-59
2021/12/21 10:51:58;;;;;;;7.60;6.90;;;;;;;2.57;71.24;95933.75;4314085;33;20282;-59
2021/12/21 10:54:48;;;;;;;9.10;8.20;;;;;;;2.65;71.63;95943.91;4296111;33;20274;-60
2021/12/21 10:57:32;;;;;;;8.03;7.33;;;;;;;2.96;70.88;95938.28;4265744;33;20324;-59
2021/12/21 11:00:04;;;;;;;7.97;7.27;;;;;;;2.66;71.94;95935.81;4293549;32;20332;-60
2021/12/21 11:02:34;;;;;;;8.70;7.67;;;;;;;2.91;71.64;95925.06;4324588;33;20297;-56
2021/12/21 11:05:08;;;;;;;9.67;8.70;;;;;;;2.75;72.16;95923.97;4314276;32;20304;-58
2021/12/21 11:07:46;;;;;;;8.23;7.40;;;;;;;2.73;72.65;95931.25;4319089;32;20288;-56
2021/12/21 11:10:35;;;;;;;15.83;8.60;;;;;;;2.58;73.53;95920.44;4335385;32;20286;-58
2021/12/21 11:13:12;;;;;;;8.43;7.63;;;;;;;2.58;73.57;95919.62;4332670;32;20296;-56
2021/12/21 11:15:56;;;;;;;8.47;7.67;;;;;;;2.72;72.66;95913.94;4328492;32;20269;-55
2021/12/21 11:18:25;;;;;;;9.40;7.13;;;;;;;2.46;73.19;95916.22;4342316;32;20282;-54
2021/12/21 11:20:58;;;;;;;7.40;6.60;;;;;;;2.64;72.84;95924.78;4292817;33;20337;-56
2021/12/21 11:23:26;;;;;;;8.47;7.53;;;;;;;2.10;73.79;95917.19;4311440;32;20278;-55
2021/12/21 11:25:58;;;;;;;7.83;7.10;;;;;;;1.85;74.68;95915.56;4343100;32;20275;-56
2021/12/21 11:28:35;;;;;;;8.10;7.30;;;;;;;1.73;75.34;95907.69;4310280;32;20290;-55
2021/12/21 11:31:12;;;;;;;7.87;6.93;;;;;;;1.58;76.62;95906.50;4312478;32;20309;-56
2021/12/21 11:33:55;;;;;;;11.63;7.87;;;;;;;1.75;76.10;95907.47;4311240;32;20333;-56
2021/12/21 11:39:10;;;;;;;8.47;7.43;;;;;;;2.16;75.20;95903.22;4334569;32;20304;-57
2021/12/21 11:41:39;;;;;;;11.23;8.20;;;;;;;2.25;74.69;95909.72;4310259;32;20328;-56
2021/12/21 11:44:38;;;;;;;10.20;7.20;;;;;;;2.65;73.67;95900.19;4341197;32;20291;-54
2021/12/21 11:47:07;;;;;;;8.70;7.40;;;;;;;2.44;74.05;95903.38;4347116;32;20293;-57
2021/12/21 11:49:54;;;;;;;8.70;7.90;;;;;;;2.51;74.21;95896.19;4337178;32;20274;-57
2021/12/21 11:52:25;;;;;;;8.77;7.30;;;;;;;2.19;75.47;95889.69;4324230;32;20266;-58
2021/12/21 11:54:55;;;;;;;9.43;6.83;;;;;;;2.54;73.82;95884.44;4302151;32;20334;-58
2021/12/21 11:57:46;;;;;;;7.07;6.37;;;;;;;2.91;72.21;95872.69;4315795;32;20280;-57
2021/12/21 12:00:29;;;;;;;9.50;8.60;;;;;;;2.71;72.27;95873.06;4328257;32;20352;-54
2021/12/21 12:03:12;;;;;;;10.57;7.63;;;;;;;2.57;72.48;95876.94;4336492;32;20337;-58
2021/12/21 12:05:42;;;;;;;6.90;6.27;;;;;;;2.40;72.55;95876.84;4317529;32;20325;-58
2021/12/21 12:08:12;;;;;;;8.13;7.30;;;;;;;2.35;72.58;95883.78;4325613;32;20321;-58
2021/12/21 12:10:57;;;;;;;8.67;7.73;;;;;;;2.39;72.55;95879.69;4307084;32;20340;-57
2021/12/21 12:13:34;;;;;;;8.03;7.23;;;;;;;2.15;73.27;95881.50;4321050;32;20282;-57
2021/12/21 12:16:17;;;;;;;9.13;7.53;;;;;;;2.25;73.38;95873.09;4301143;33;20286;-58
2021/12/21 12:18:50;;;;;;;8.57;7.77;;;;;;;2.63;71.94;95873.41;4325331;32;20262;-56
2021/12/21 12:21:15;;;;;;;10.30;6.97;;;;;;;2.17;72.86;95871.59;4332098;32;20266;-59
2021/12/21 12:23:51;;;;;;;11.67;6.63;;;;;;;2.19;72.85;95869.56;4335917;32;20331;-56
2021/12/21 12:26:21;;;;;;;7.30;6.73;;;;;;;2.25;72.91;95878.31;4329489;32;20181;-58
2021/12/21 12:28:46;;;;;;;8.67;7.90;;;;;;;2.42;73.09;95866.16;4332055;32;20282;-56
2021/12/21 12:31:25;;;;;;;9.27;7.00;;;;;;;2.45;72.66;95860.47;4303802;33;20374;-58
2021/12/21 12:33:50;;;;;;;8.00;7.30;;;;;;;2.36;71.98;95867.84;4314585;33;20196;-59
2021/12/21 12:36:15;;;;;;;8.70;7.77;;;;;;;2.30;72.70;95865.34;4324315;33;20274;-56
2021/12/21 12:38:43;;;;;;;7.47;6.73;;;;;;;2.34;72.69;95871.72;4311295;32;20232;-58
2021/12/21 12:41:13;;;;;;;7.77;6.80;;;;;;;2.36;72.86;95872.28;4309094;33;20200;-57
2021/12/21 12:43:46;;;;;;;7.67;6.87;;;;;;;2.08;73.24;95872.19;4322863;33;20316;-58
2021/12/21 12:46:24;;;;;;;13.83;7.00;;;;;;;2.18;73.14;95867.16;4311930;32;20289;-58
2021/12/21 12:48:49;;;;;;;7.20;6.55;;;;;;;1.98;73.25;95870.09;4308279;33;20274;-58
2021/12/21 12:51:27;;;;;;;7.53;6.40;;;;;;;1.98;73.20;95865.66;4332756;32;20224;-58
2021/12/21 12:53:52;;;;;;;8.07;7.07;;;;;;;2.02;73.79;95868.63;4314039;32;20256;-58
2021/12/21 12:56:21;;;;;;;7.73;7.03;;;;;;;1.93;74.34;95868.16;4325918;32;20197;-58
2021/12/21 12:58:54;;;;;;;8.77;7.30;;;;;;;2.31;73.52;95872.16;4323393;32;20186;-58
2021/12/21 13:01:24;;;;;;;8.40;7.47;;;;;;;2.28;73.76;95867.41;4321535;32;20286;-58
2021/12/21 13:03:51;;;;;;;10.93;7.93;;;;;;;2.13;73.93;95875.69;4311200;33;20362;-58
2021/12/21 13:06:24;;;;;;;8.87;6.50;;;;;;;2.18;73.87;95873.19;4321877;32;20377;-58
2021/12/21 13:08:50;;;;;;;8.67;7.70;;;;;;;2.25;73.34;95868.66;4323678;32;20329;-58